createdAt,value
2022-11-30T00:01:29.573Z,19.60
2022-11-30T00:03:46.606Z,20.35
2022-11-30T00:06:03.680Z,19.30
2022-11-30T00:08:20.698Z,19.73
2022-11-30T00:10:38.096Z,19.70
2022-11-30T00:12:55.174Z,18.60
2022-11-30T00:15:13.496Z,19.65
2022-11-30T00:17:31.759Z,19.45
2022-11-30T00:19:50.091Z,18.45
2022-11-30T00:22:07.472Z,18.98
2022-11-30T00:24:24.585Z,18.52
2022-11-30T00:26:41.596Z,19.00
2022-11-30T00:28:58.639Z,18.40
2022-11-30T00:31:15.913Z,19.08
2022-11-30T00:33:33.011Z,18.45
2022-11-30T00:35:50.010Z,19.10
2022-11-30T00:38:06.917Z,19.42
2022-11-30T00:40:24.103Z,19.77
2022-11-30T00:42:41.113Z,20.13
2022-11-30T00:44:58.401Z,19.30
2022-11-30T00:47:16.396Z,20.00
2022-11-30T00:49:33.302Z,19.33
2022-11-30T00:51:50.548Z,17.70
2022-11-30T00:54:07.826Z,20.20
2022-11-30T00:56:25.079Z,19.35
2022-11-30T00:58:42.463Z,19.48
2022-11-30T01:01:00.484Z,19.20
2022-11-30T01:03:18.205Z,18.48
2022-11-30T01:05:35.573Z,18.88
2022-11-30T01:07:52.550Z,19.00
2022-11-30T01:10:09.660Z,19.77
2022-11-30T01:12:26.904Z,18.45
2022-11-30T01:14:44.653Z,18.40
2022-11-30T01:17:02.149Z,18.67
2022-11-30T01:19:19.552Z,18.73
2022-11-30T01:21:36.575Z,18.85
2022-11-30T01:23:55.270Z,18.65
2022-11-30T01:26:12.665Z,19.63
2022-11-30T01:28:29.760Z,18.98
2022-11-30T01:30:47.110Z,19.30
2022-11-30T01:33:06.935Z,18.23
2022-11-30T01:35:24.202Z,19.45
2022-11-30T01:37:41.555Z,18.85
2022-11-30T01:39:58.658Z,19.05
2022-11-30T01:42:16.077Z,18.35
2022-11-30T01:44:33.443Z,18.20
2022-11-30T01:46:50.513Z,18.52
2022-11-30T01:49:07.521Z,19.00
2022-11-30T01:51:24.470Z,19.02
2022-11-30T01:53:41.414Z,17.58
2022-11-30T01:55:58.723Z,18.73
2022-11-30T01:58:15.814Z,18.20
2022-11-30T02:00:33.559Z,17.92
2022-11-30T02:02:50.959Z,18.67
2022-11-30T02:05:08.037Z,19.60
2022-11-30T02:07:25.415Z,18.23
2022-11-30T02:09:42.722Z,19.75
2022-11-30T02:11:59.733Z,18.52
2022-11-30T02:14:16.674Z,19.40
2022-11-30T02:16:33.968Z,18.98
2022-11-30T02:18:50.933Z,19.77
2022-11-30T02:21:08.206Z,19.67
2022-11-30T02:23:25.287Z,18.55
2022-11-30T02:25:43.526Z,19.65
2022-11-30T02:28:00.458Z,17.83
2022-11-30T02:30:17.605Z,20.73
2022-11-30T02:32:34.565Z,20.25
2022-11-30T02:34:51.765Z,19.73
2022-11-30T02:37:09.108Z,19.25
2022-11-30T02:39:27.640Z,20.20
2022-11-30T02:41:44.902Z,20.55
2022-11-30T02:44:01.921Z,19.58
2022-11-30T02:46:18.900Z,20.02
2022-11-30T02:48:35.930Z,20.30
2022-11-30T02:50:53.249Z,21.73
2022-11-30T02:53:10.229Z,21.30
2022-11-30T02:55:27.486Z,21.02
2022-11-30T02:57:44.760Z,21.98
2022-11-30T03:00:02.014Z,20.73
2022-11-30T03:02:19.314Z,20.70
2022-11-30T03:04:37.647Z,21.40
2022-11-30T03:06:54.692Z,20.60
2022-11-30T03:09:11.943Z,21.35
2022-11-30T03:11:29.250Z,20.02
2022-11-30T03:13:46.617Z,20.10
2022-11-30T03:16:03.545Z,20.13
2022-11-30T03:18:20.633Z,20.38
2022-11-30T03:20:37.522Z,20.80
2022-11-30T03:22:54.465Z,20.90
2022-11-30T03:25:11.465Z,21.15
2022-11-30T03:27:29.504Z,20.50
2022-11-30T03:29:47.521Z,20.25
2022-11-30T03:32:04.396Z,19.77
2022-11-30T03:34:21.993Z,19.15
2022-11-30T03:36:39.062Z,19.95
2022-11-30T03:38:57.402Z,21.02
2022-11-30T03:41:15.326Z,20.33
2022-11-30T03:43:32.212Z,19.90
2022-11-30T03:45:49.430Z,20.85
2022-11-30T03:48:06.709Z,20.98
2022-11-30T03:50:23.644Z,19.30
2022-11-30T03:52:40.627Z,19.45
2022-11-30T03:54:57.676Z,20.63
2022-11-30T03:57:14.559Z,20.60
2022-11-30T03:59:31.802Z,19.75
2022-11-30T04:01:48.746Z,19.55
2022-11-30T04:04:05.730Z,21.67
2022-11-30T04:06:22.817Z,20.58
2022-11-30T04:08:39.748Z,20.65
2022-11-30T04:10:56.764Z,20.42
2022-11-30T04:13:13.796Z,19.70
2022-11-30T04:15:30.839Z,20.67
2022-11-30T04:17:48.874Z,19.60
2022-11-30T04:20:05.947Z,19.70
2022-11-30T04:22:23.265Z,21.23
2022-11-30T04:24:41.443Z,19.52
2022-11-30T04:26:58.317Z,20.58
2022-11-30T04:29:16.300Z,20.48
2022-11-30T04:31:33.287Z,19.17
2022-11-30T04:33:50.373Z,20.92
2022-11-30T04:36:07.254Z,20.67
2022-11-30T04:38:24.271Z,20.48
2022-11-30T04:40:41.244Z,19.40
2022-11-30T04:42:58.160Z,19.55
2022-11-30T04:45:15.505Z,20.05
2022-11-30T04:47:32.530Z,20.77
2022-11-30T04:49:49.509Z,19.40
2022-11-30T04:52:06.756Z,21.38
2022-11-30T04:54:24.280Z,21.15
2022-11-30T04:56:41.256Z,20.70
2022-11-30T04:58:58.150Z,19.05
2022-11-30T05:01:16.328Z,19.10
2022-11-30T05:03:34.284Z,20.10
2022-11-30T05:05:51.547Z,18.77
2022-11-30T05:08:08.553Z,18.98
2022-11-30T05:10:26.797Z,20.20
2022-11-30T05:12:44.135Z,20.05
2022-11-30T05:15:00.970Z,19.23
2022-11-30T05:17:18.234Z,19.48
2022-11-30T05:19:35.190Z,19.00
2022-11-30T05:21:52.270Z,20.48
2022-11-30T05:24:09.328Z,19.08
2022-11-30T05:26:26.256Z,18.20
2022-11-30T05:28:43.296Z,17.45
2022-11-30T05:31:00.261Z,18.58
2022-11-30T05:33:17.244Z,19.73
2022-11-30T05:35:34.314Z,18.38
2022-11-30T05:37:52.382Z,18.55
2022-11-30T05:40:09.330Z,17.02
2022-11-30T05:42:26.653Z,19.48
2022-11-30T05:44:43.723Z,19.23
2022-11-30T05:47:00.731Z,18.15
2022-11-30T05:49:17.795Z,19.10
2022-11-30T05:51:34.783Z,19.48
2022-11-30T05:53:51.764Z,19.25
2022-11-30T05:56:09.107Z,18.25
2022-11-30T05:58:27.075Z,19.40
2022-11-30T06:00:44.030Z,18.08
2022-11-30T06:03:01.481Z,17.98
2022-11-30T06:05:18.874Z,17.15
2022-11-30T06:07:36.211Z,19.40
2022-11-30T06:09:53.225Z,17.80
2022-11-30T06:12:10.564Z,18.88
2022-11-30T06:14:27.617Z,18.80
2022-11-30T06:16:44.903Z,18.98
2022-11-30T06:19:03.295Z,19.13
2022-11-30T06:21:24.446Z,19.00
2022-11-30T06:23:42.034Z,20.08
2022-11-30T06:25:59.287Z,20.48
2022-11-30T06:28:16.231Z,17.38
2022-11-30T06:30:33.143Z,19.92
2022-11-30T06:32:50.185Z,19.13
2022-11-30T06:35:07.239Z,18.67
2022-11-30T06:37:25.295Z,19.85
2022-11-30T06:42:19.487Z,22.90
2022-11-30T06:44:36.504Z,21.35
2022-11-30T06:46:53.569Z,20.63
2022-11-30T06:49:10.500Z,19.98
2022-11-30T06:51:27.483Z,19.40
2022-11-30T06:53:44.819Z,19.50
2022-11-30T06:56:05.321Z,19.58
2022-11-30T06:58:26.973Z,19.10
2022-11-30T07:00:44.353Z,18.48
2022-11-30T07:03:02.271Z,19.25
2022-11-30T07:05:19.475Z,18.27
2022-11-30T07:07:36.857Z,18.08
2022-11-30T07:09:54.220Z,17.42
2022-11-30T07:12:12.235Z,18.13
2022-11-30T07:14:29.556Z,17.15
2022-11-30T07:16:46.566Z,15.95
2022-11-30T07:19:03.832Z,16.85
2022-11-30T07:21:20.856Z,18.52
2022-11-30T07:23:37.752Z,17.20
2022-11-30T07:25:54.645Z,16.73
2022-11-30T07:28:11.706Z,17.67
2022-11-30T07:30:28.751Z,16.77
2022-11-30T07:32:45.792Z,17.80
2022-11-30T07:35:03.044Z,15.95
2022-11-30T07:37:20.302Z,18.08
2022-11-30T07:39:37.508Z,17.83
2022-11-30T07:41:54.802Z,17.75
2022-11-30T07:44:11.734Z,18.50
2022-11-30T07:46:29.605Z,18.50
2022-11-30T07:48:46.552Z,18.23
2022-11-30T07:51:03.487Z,15.52
2022-11-30T07:53:20.429Z,13.57
2022-11-30T07:55:37.357Z,14.23
2022-11-30T07:57:54.398Z,14.50
2022-11-30T08:00:11.377Z,14.60
2022-11-30T08:02:28.504Z,13.93
2022-11-30T08:04:46.250Z,12.98
2022-11-30T08:07:03.792Z,15.00
2022-11-30T08:09:21.170Z,14.48
2022-11-30T08:11:38.426Z,14.05
2022-11-30T08:13:56.718Z,14.65
2022-11-30T08:16:13.711Z,14.18
2022-11-30T08:18:31.053Z,14.20
2022-11-30T08:20:50.112Z,12.68
2022-11-30T08:23:07.360Z,18.67
2022-11-30T08:25:24.662Z,16.75
2022-11-30T08:27:41.708Z,18.67
2022-11-30T08:29:58.790Z,19.27
2022-11-30T08:32:15.828Z,14.70
2022-11-30T08:34:32.805Z,14.40
2022-11-30T08:36:51.925Z,14.43
2022-11-30T08:39:09.048Z,13.70
2022-11-30T08:41:25.956Z,13.68
2022-11-30T08:43:42.983Z,13.50
2022-11-30T08:46:00.133Z,13.15
2022-11-30T08:48:17.197Z,13.88
2022-11-30T08:50:34.261Z,15.68
2022-11-30T08:52:51.248Z,14.93
2022-11-30T08:55:08.388Z,16.33
2022-11-30T08:57:25.658Z,16.83
2022-11-30T08:59:42.760Z,14.80
2022-11-30T09:01:59.830Z,14.82
2022-11-30T09:04:16.800Z,12.48
2022-11-30T09:06:33.800Z,12.70
2022-11-30T09:08:51.719Z,12.07
2022-11-30T09:11:08.951Z,12.25
2022-11-30T09:13:26.067Z,11.43
2022-11-30T09:15:43.212Z,11.80
2022-11-30T09:18:00.265Z,12.05
2022-11-30T09:20:17.635Z,12.30
2022-11-30T09:22:35.825Z,12.75
2022-11-30T09:24:52.824Z,11.80
2022-11-30T09:27:10.170Z,12.35
2022-11-30T09:29:27.213Z,11.43
2022-11-30T09:31:44.091Z,12.68
2022-11-30T09:34:00.986Z,12.00
2022-11-30T09:36:18.317Z,11.07
2022-11-30T09:38:35.378Z,12.15
2022-11-30T09:40:55.087Z,13.27
2022-11-30T09:43:12.301Z,12.68
2022-11-30T09:45:30.660Z,11.75
2022-11-30T09:47:47.665Z,14.75
2022-11-30T09:50:05.008Z,18.77
2022-11-30T09:52:21.982Z,16.65
2022-11-30T09:54:38.898Z,15.45
2022-11-30T09:56:57.134Z,15.82
2022-11-30T09:59:14.424Z,14.10
2022-11-30T10:01:33.012Z,14.05
2022-11-30T10:03:51.128Z,14.30
2022-11-30T10:06:08.092Z,13.45
2022-11-30T10:08:25.015Z,14.10
2022-11-30T10:10:41.928Z,14.45
2022-11-30T10:12:58.975Z,12.90
2022-11-30T10:15:15.996Z,12.55
2022-11-30T10:17:33.266Z,14.25
2022-11-30T10:19:50.313Z,13.43
2022-11-30T10:22:07.238Z,12.60
2022-11-30T10:24:24.306Z,12.98
2022-11-30T10:26:41.340Z,13.75
2022-11-30T10:28:58.333Z,12.98
2022-11-30T10:31:15.690Z,13.90
2022-11-30T10:33:38.163Z,13.68
2022-11-30T10:35:55.822Z,12.20
2022-11-30T10:38:12.793Z,13.55
2022-11-30T10:40:30.184Z,12.55
2022-11-30T10:42:47.528Z,12.07
2022-11-30T10:45:05.519Z,12.75
2022-11-30T10:47:22.814Z,13.05
2022-11-30T10:49:39.774Z,12.65
2022-11-30T10:51:57.131Z,11.23
2022-11-30T10:54:14.165Z,11.38
2022-11-30T10:56:31.481Z,11.20
2022-11-30T10:58:48.585Z,12.13
2022-11-30T11:01:05.656Z,11.30
2022-11-30T11:03:23.745Z,10.32
2022-11-30T11:05:41.040Z,11.52
2022-11-30T11:08:01.459Z,10.95
2022-11-30T11:10:20.326Z,14.10
2022-11-30T11:12:37.242Z,29.17
2022-11-30T11:14:54.484Z,17.60
2022-11-30T11:17:12.375Z,13.73
2022-11-30T11:19:29.288Z,13.35
2022-11-30T11:21:46.218Z,11.65
2022-11-30T11:24:03.119Z,12.57
2022-11-30T11:26:20.180Z,13.52
2022-11-30T11:28:37.230Z,10.90
2022-11-30T11:30:54.179Z,11.57
2022-11-30T11:33:11.222Z,10.80
2022-11-30T11:35:28.383Z,11.35
2022-11-30T11:37:45.352Z,10.85
2022-11-30T11:40:02.457Z,10.95
2022-11-30T11:42:22.121Z,11.23
2022-11-30T11:44:39.870Z,11.40
2022-11-30T11:46:57.078Z,11.63
2022-11-30T11:49:14.383Z,11.27
2022-11-30T11:51:31.326Z,11.57
2022-11-30T11:53:53.350Z,10.82
2022-11-30T11:56:11.087Z,10.80
2022-11-30T11:58:28.134Z,10.90
2022-11-30T12:00:45.461Z,11.90
2022-11-30T12:03:02.810Z,11.65
2022-11-30T12:05:20.867Z,14.63
2022-11-30T12:07:38.177Z,11.93
2022-11-30T12:09:55.239Z,12.10
2022-11-30T12:12:12.536Z,12.10
2022-11-30T12:14:29.488Z,11.85
2022-11-30T12:16:46.406Z,11.68
2022-11-30T12:19:03.746Z,13.10
2022-11-30T12:21:21.078Z,14.02
2022-11-30T12:23:39.192Z,12.27
2022-11-30T12:25:56.704Z,12.25
2022-11-30T12:28:13.792Z,12.43
2022-11-30T12:30:31.027Z,12.48
2022-11-30T12:32:47.956Z,13.63
2022-11-30T12:35:05.301Z,14.77
2022-11-30T12:37:22.327Z,14.10
2022-11-30T12:39:39.364Z,14.23
2022-11-30T12:41:56.699Z,14.63
2022-11-30T12:44:13.966Z,14.02
2022-11-30T12:46:31.041Z,14.85
2022-11-30T12:48:48.090Z,15.70
2022-11-30T12:51:05.099Z,15.00
2022-11-30T12:53:22.380Z,15.18
2022-11-30T12:55:39.573Z,15.13
2022-11-30T12:57:56.820Z,14.63
2022-11-30T13:00:14.142Z,15.15
2022-11-30T13:02:31.106Z,15.55
2022-11-30T13:04:51.913Z,14.57
2022-11-30T13:07:13.840Z,14.73
2022-11-30T13:09:31.781Z,15.30
2022-11-30T13:11:49.356Z,14.48
2022-11-30T13:14:06.387Z,15.43
2022-11-30T13:16:23.601Z,16.33
2022-11-30T13:18:41.760Z,14.10
2022-11-30T13:21:04.860Z,12.73
2022-11-30T13:23:23.517Z,16.00
2022-11-30T13:28:17.474Z,16.10
2022-11-30T13:30:34.917Z,14.27
2022-11-30T13:32:59.426Z,15.18
2022-11-30T13:35:16.623Z,16.90
2022-11-30T13:37:33.913Z,17.17
2022-11-30T13:39:52.566Z,16.67
2022-11-30T13:42:09.533Z,15.23
2022-11-30T13:44:26.931Z,15.15
2022-11-30T13:46:44.061Z,15.68
2022-11-30T13:49:01.209Z,13.57
2022-11-30T13:51:18.266Z,15.48
2022-11-30T13:53:35.282Z,14.88
2022-11-30T13:55:52.441Z,14.90
2022-11-30T13:58:09.399Z,16.50
2022-11-30T14:00:26.420Z,21.35
2022-11-30T14:02:43.401Z,22.73
2022-11-30T14:05:00.436Z,21.95
2022-11-30T14:07:17.545Z,23.73
2022-11-30T14:09:34.587Z,25.75
2022-11-30T14:11:51.548Z,25.23
2022-11-30T14:14:08.531Z,25.25
2022-11-30T14:16:25.580Z,25.25
2022-11-30T14:18:42.669Z,25.15
2022-11-30T14:20:59.958Z,25.27
2022-11-30T14:23:17.034Z,25.13
2022-11-30T14:25:33.968Z,23.55
2022-11-30T14:27:51.040Z,24.55
2022-11-30T14:30:08.313Z,25.52
2022-11-30T14:32:25.621Z,24.05
2022-11-30T14:34:42.555Z,23.95
2022-11-30T14:36:59.545Z,24.85
2022-11-30T14:39:16.860Z,26.27
2022-11-30T14:41:34.704Z,24.90
2022-11-30T14:43:52.921Z,25.52
2022-11-30T14:46:15.677Z,23.48
2022-11-30T14:48:32.895Z,23.58
2022-11-30T14:50:50.215Z,23.50
2022-11-30T14:53:07.159Z,22.42
2022-11-30T14:55:24.073Z,23.38
2022-11-30T14:57:41.357Z,23.15
2022-11-30T14:59:58.587Z,25.15
2022-11-30T15:02:15.977Z,23.75
2022-11-30T15:04:32.930Z,24.33
2022-11-30T15:06:50.231Z,23.17
2022-11-30T15:09:07.751Z,22.67
2022-11-30T15:11:24.782Z,22.08
2022-11-30T15:13:41.791Z,23.02
2022-11-30T15:15:58.767Z,21.63
2022-11-30T15:18:16.133Z,23.30
2022-11-30T15:20:33.542Z,20.52
2022-11-30T15:22:50.600Z,22.50
2022-11-30T15:25:07.964Z,22.52
2022-11-30T15:27:24.907Z,24.27
2022-11-30T15:29:41.959Z,22.55
2022-11-30T15:31:59.152Z,21.63
2022-11-30T15:34:16.276Z,23.17
2022-11-30T15:36:34.057Z,22.30
2022-11-30T15:38:52.880Z,22.15
2022-11-30T15:41:11.112Z,22.13
2022-11-30T15:43:29.407Z,22.83
2022-11-30T15:45:46.342Z,21.90
2022-11-30T15:48:03.855Z,22.60
2022-11-30T15:50:21.826Z,21.13
2022-11-30T15:52:38.865Z,22.95
2022-11-30T15:54:55.792Z,21.92
2022-11-30T15:57:13.111Z,22.00
2022-11-30T15:59:30.055Z,20.98
2022-11-30T16:01:46.998Z,23.27
2022-11-30T16:04:04.116Z,22.00
2022-11-30T16:06:21.190Z,22.23
2022-11-30T16:08:38.256Z,21.55
2022-11-30T16:10:55.325Z,20.92
2022-11-30T16:13:12.314Z,20.77
2022-11-30T16:15:29.533Z,21.38
2022-11-30T16:17:46.448Z,21.63
2022-11-30T16:20:03.892Z,21.40
2022-11-30T16:22:20.990Z,27.85
2022-11-30T16:24:38.021Z,32.13
2022-11-30T16:26:55.325Z,28.90
2022-11-30T16:29:12.874Z,26.67
2022-11-30T16:31:29.857Z,27.73
2022-11-30T16:33:47.200Z,24.20
2022-11-30T16:36:04.182Z,22.92
2022-11-30T16:38:21.442Z,23.35
2022-11-30T16:40:39.383Z,20.85
2022-11-30T16:42:56.632Z,20.98
2022-11-30T16:45:14.855Z,21.10
2022-11-30T16:47:32.011Z,20.63
2022-11-30T16:49:49.270Z,20.52
2022-11-30T16:52:06.492Z,21.70
2022-11-30T16:54:26.213Z,21.27
2022-11-30T16:56:43.091Z,21.13
2022-11-30T16:59:00.184Z,20.10
2022-11-30T17:01:17.322Z,21.25
2022-11-30T17:03:34.699Z,22.42
2022-11-30T17:05:52.594Z,20.85
2022-11-30T17:08:10.020Z,21.45
2022-11-30T17:10:27.085Z,22.92
2022-11-30T17:12:43.973Z,22.55
2022-11-30T17:15:01.400Z,22.63
2022-11-30T17:17:18.838Z,20.85
2022-11-30T17:19:36.167Z,20.42
2022-11-30T17:21:53.371Z,20.75
2022-11-30T17:24:11.433Z,21.38
2022-11-30T17:26:28.420Z,20.33
2022-11-30T17:28:46.659Z,20.50
2022-11-30T17:31:04.025Z,20.80
2022-11-30T17:33:20.922Z,21.20
2022-11-30T17:35:38.505Z,21.08
2022-11-30T17:37:55.542Z,21.08
2022-11-30T17:40:12.425Z,20.55
2022-11-30T17:42:29.464Z,20.50
2022-11-30T17:44:46.832Z,19.40
2022-11-30T17:47:04.270Z,20.20
2022-11-30T17:49:22.269Z,19.88
2022-11-30T17:51:39.513Z,20.08
2022-11-30T17:53:56.883Z,20.00
2022-11-30T17:56:14.141Z,20.17
2022-11-30T17:58:35.341Z,22.15
2022-11-30T18:00:54.266Z,21.63
2022-11-30T18:03:11.598Z,21.60
2022-11-30T18:05:28.822Z,20.55
2022-11-30T18:07:46.261Z,19.98
2022-11-30T18:10:03.593Z,20.60
2022-11-30T18:12:20.598Z,19.58
2022-11-30T18:14:37.595Z,18.88
2022-11-30T18:16:54.654Z,21.20
2022-11-30T18:19:12.750Z,21.70
2022-11-30T18:21:29.811Z,20.55
2022-11-30T18:23:46.821Z,20.35
2022-11-30T18:26:04.175Z,21.20
2022-11-30T18:28:21.225Z,24.90
2022-11-30T18:30:38.617Z,24.80
2022-11-30T18:32:55.981Z,24.45
2022-11-30T18:35:14.043Z,23.42
2022-11-30T18:37:31.046Z,22.48
2022-11-30T18:39:48.728Z,23.05
2022-11-30T18:42:05.755Z,20.67
2022-11-30T18:44:23.665Z,19.83
2022-11-30T18:46:41.111Z,19.13
2022-11-30T18:48:58.221Z,18.23
2022-11-30T18:51:15.448Z,18.77
2022-11-30T18:53:32.756Z,18.00
2022-11-30T18:55:49.724Z,19.08
2022-11-30T18:58:06.682Z,17.90
2022-11-30T19:00:23.996Z,18.20
2022-11-30T19:02:41.959Z,17.30
2022-11-30T19:04:59.398Z,18.08
2022-11-30T19:07:16.394Z,19.08
2022-11-30T19:09:33.267Z,18.00
2022-11-30T19:11:50.302Z,18.08
2022-11-30T19:16:48.848Z,16.70
2022-11-30T19:19:05.964Z,18.15
2022-11-30T19:21:23.256Z,20.20
2022-11-30T19:23:46.031Z,20.90
2022-11-30T19:26:03.301Z,21.52
2022-11-30T19:28:20.282Z,21.95
2022-11-30T19:30:37.183Z,20.85
2022-11-30T19:32:54.225Z,20.67
2022-11-30T19:35:12.211Z,20.17
2022-11-30T19:37:29.048Z,19.33
2022-11-30T19:39:46.054Z,18.60
2022-11-30T19:42:03.268Z,18.67
2022-11-30T19:44:20.481Z,19.48
2022-11-30T19:46:37.451Z,19.25
2022-11-30T19:48:54.833Z,19.17
2022-11-30T19:51:16.306Z,18.35
2022-11-30T19:53:35.137Z,19.15
2022-11-30T19:55:52.706Z,18.27
2022-11-30T19:58:09.638Z,20.98
2022-11-30T20:00:27.425Z,20.30
2022-11-30T20:02:44.460Z,20.40
2022-11-30T20:05:01.511Z,19.67
2022-11-30T20:07:20.953Z,19.23
2022-11-30T20:09:37.890Z,17.92
2022-11-30T20:11:54.970Z,18.00
2022-11-30T20:14:12.799Z,18.25
2022-11-30T20:16:30.288Z,18.05
2022-11-30T20:18:47.301Z,18.05
2022-11-30T20:21:04.429Z,17.58
2022-11-30T20:23:21.432Z,16.92
2022-11-30T20:25:38.718Z,17.98
2022-11-30T20:27:56.064Z,18.25
2022-11-30T20:30:14.063Z,17.00
2022-11-30T20:32:32.437Z,18.88
2022-11-30T20:34:50.566Z,17.42
2022-11-30T20:37:08.092Z,17.70
2022-11-30T20:39:25.330Z,18.02
2022-11-30T20:41:42.345Z,17.13
2022-11-30T20:43:59.315Z,17.73
2022-11-30T20:46:16.318Z,16.52
2022-11-30T20:48:33.324Z,17.33
2022-11-30T20:51:14.088Z,17.38
2022-11-30T20:53:28.267Z,16.30
2022-11-30T20:55:45.358Z,17.00
2022-11-30T20:58:02.241Z,17.73
2022-11-30T21:00:19.550Z,17.30
2022-11-30T21:02:36.880Z,18.13
2022-11-30T21:04:54.006Z,17.63
2022-11-30T21:07:11.094Z,18.08
2022-11-30T21:09:29.153Z,18.00
2022-11-30T21:11:46.377Z,18.33
2022-11-30T21:14:03.444Z,16.98
2022-11-30T21:16:26.849Z,18.67
2022-11-30T21:18:45.260Z,17.20
2022-11-30T21:21:02.885Z,16.25
2022-11-30T21:23:24.831Z,17.50
2022-11-30T21:25:42.877Z,16.17
2022-11-30T21:28:00.265Z,17.65
2022-11-30T21:30:17.347Z,15.93
2022-11-30T21:32:34.382Z,17.45
2022-11-30T21:34:51.397Z,17.30
2022-11-30T21:37:08.481Z,16.58
2022-11-30T21:39:26.571Z,17.73
2022-11-30T21:41:44.483Z,17.15
2022-11-30T21:44:02.496Z,17.70
2022-11-30T21:46:19.626Z,17.65
2022-11-30T21:48:36.577Z,16.10
2022-11-30T21:50:53.609Z,15.50
2022-11-30T21:53:11.593Z,15.98
2022-11-30T21:55:28.717Z,17.05
2022-11-30T21:57:45.834Z,16.55
2022-11-30T22:00:02.768Z,16.52
2022-11-30T22:02:20.024Z,17.10
2022-11-30T22:04:36.852Z,15.73
2022-11-30T22:06:54.747Z,15.77
2022-11-30T22:09:11.994Z,15.75
2022-11-30T22:11:29.236Z,16.45
2022-11-30T22:13:46.531Z,16.25
2022-11-30T22:16:03.796Z,17.48
2022-11-30T22:18:20.769Z,15.40
2022-11-30T22:20:37.793Z,15.70
2022-11-30T22:22:54.817Z,16.27
2022-11-30T22:25:12.058Z,15.82
2022-11-30T22:27:29.016Z,15.68
2022-11-30T22:29:46.146Z,15.93
2022-11-30T22:32:03.271Z,15.95
2022-11-30T22:34:20.341Z,14.95
2022-11-30T22:36:37.666Z,15.30
2022-11-30T22:38:55.008Z,15.93
2022-11-30T22:41:12.879Z,16.15
2022-11-30T22:43:29.873Z,16.50
2022-11-30T22:45:48.234Z,16.08
2022-11-30T22:48:05.164Z,16.20
2022-11-30T22:50:22.511Z,16.80
2022-11-30T22:53:02.000Z,17.10
2022-11-30T22:55:16.818Z,16.60
2022-11-30T22:57:33.885Z,16.92
2022-11-30T22:59:51.163Z,17.45
2022-11-30T23:02:08.177Z,15.75
2022-11-30T23:04:25.299Z,15.52
2022-11-30T23:06:42.325Z,15.20
2022-11-30T23:09:00.237Z,15.77
2022-11-30T23:11:17.488Z,15.57
2022-11-30T23:13:34.770Z,16.40
2022-11-30T23:15:51.800Z,15.02
2022-11-30T23:18:09.111Z,14.70
2022-11-30T23:20:26.146Z,15.13
2022-11-30T23:22:43.270Z,15.52
2022-11-30T23:25:00.357Z,16.25
2022-11-30T23:27:17.808Z,15.00
2022-11-30T23:29:36.123Z,14.55
2022-11-30T23:31:53.172Z,15.50
2022-11-30T23:34:10.391Z,14.82
2022-11-30T23:36:27.660Z,14.50
2022-11-30T23:38:44.634Z,14.70
2022-11-30T23:41:01.715Z,14.23
2022-11-30T23:43:18.758Z,14.55
2022-11-30T23:45:35.694Z,13.93
2022-11-30T23:47:55.496Z,12.80
2022-11-30T23:50:13.837Z,14.75
2022-11-30T23:52:30.899Z,15.35
2022-11-30T23:54:48.203Z,14.25
2022-11-30T23:57:05.462Z,12.75
2022-11-30T23:59:22.463Z,14.48
